Time;durP1;ratioP1;P1;durP2;ratioP2;P2;SDS_P1;SDS_P2;PMS_P1;PMS_P2;Temp;Humidity;BMP_temperature;BMP_pressure;BME280_temperature;BME280_humidity;BME280_pressure;Samples;Min_cycle;Max_cycle;Signal;HPM_P1;HPM_P2
2022/04/15 00:01:20;;;;;;;6.68;2.10;;;;;;;;;;5010297;28;20528;-83
2022/04/15 00:03:47;;;;;;;4.85;2.47;;;;;;;;;;5005077;28;20037;-84
2022/04/15 00:06:13;;;;;;;6.78;2.83;;;;;;;;;;5008459;28;20034;-84
2022/04/15 00:08:40;;;;;;;5.00;2.53;;;;;;;;;;5009296;28;20042;-84
2022/04/15 00:11:06;;;;;;;7.70;3.10;;;;;;;;;;5009555;28;20397;-82
2022/04/15 00:13:33;;;;;;;8.30;2.60;;;;;;;;;;5017347;28;20033;-82
2022/04/15 00:15:59;;;;;;;3.88;2.15;;;;;;;;;;5007256;28;20124;-85
2022/04/15 00:18:26;;;;;;;6.07;2.55;;;;;;;;;;5004151;28;20646;-84
2022/04/15 00:20:52;;;;;;;5.22;2.47;;;;;;;;;;5008719;28;20030;-84
2022/04/15 00:23:18;;;;;;;8.30;3.13;;;;;;;;;;5014109;28;20057;-85
2022/04/15 00:25:44;;;;;;;8.63;3.60;;;10.20;99.90;;;;;;5008663;28;20073;-83
2022/04/15 00:28:10;;;;;;;5.68;2.72;;;10.50;99.90;;;;;;5012487;28;20049;-83
2022/04/15 00:30:36;;;;;;;7.38;3.00;;;;;;;;;;5008538;28;20036;-82
2022/04/15 00:33:02;;;;;;;4.10;2.40;;;;;;;;;;5012072;28;20022;-83
2022/04/15 00:35:28;;;;;;;5.63;2.20;;;;;;;;;;5008278;28;20037;-83
2022/04/15 00:37:54;;;;;;;6.68;2.72;;;;;;;;;;5011843;28;20030;-84
2022/04/15 00:40:20;;;;;;;8.88;2.90;;;;;;;;;;5003496;28;20441;-83
2022/04/15 00:42:46;;;;;;;4.97;2.33;;;;;;;;;;5016967;28;20038;-85
2022/04/15 00:45:12;;;;;;;10.10;3.53;;;;;;;;;;4998487;28;20022;-84
2022/04/15 00:47:38;;;;;;;6.80;3.25;;;;;;;;;;5011648;28;20171;-84
2022/04/15 00:50:04;;;;;;;9.48;3.17;;;9.20;99.90;;;;;;5011525;28;20042;-84
2022/04/15 00:52:35;;;;;;;5.13;2.03;;;;;;;;;;5002566;28;20053;-83
2022/04/15 00:55:04;;;;;;;7.15;2.33;;;;;;;;;;5006335;28;20053;-85
2022/04/15 00:57:36;;;;;;;8.70;3.17;;;;;;;;;;5011361;28;20026;-84
2022/04/15 01:00:04;;;;;;;5.65;2.42;;;;;;;;;;5007721;28;20026;-83
2022/04/15 01:02:30;;;;;;;5.80;3.05;;;;;;;;;;5008905;28;20092;-84
2022/04/15 01:04:57;;;;;;;6.05;3.28;;;;;;;;;;5008407;28;20030;-84
2022/04/15 01:07:23;;;;;;;5.38;2.03;;;;;;;;;;5008978;28;20576;-84
2022/04/15 01:09:51;;;;;;;7.72;2.45;;;;;;;;;;5008063;28;20485;-84
2022/04/15 01:12:21;;;;;;;4.85;2.60;;;;;;;;;;5007214;28;20662;-84
2022/04/15 01:14:48;;;;;;;7.85;2.83;;;;;;;;;;5009638;28;20084;-84
2022/04/15 01:17:14;;;;;;;13.10;2.45;;;;;;;;;;5008592;28;20025;-84
2022/04/15 01:19:41;;;;;;;6.88;2.17;;;;;;;;;;5007745;28;20821;-84
2022/04/15 01:22:13;;;;;;;7.03;3.08;;;;;;;;;;5003672;28;20037;-84
2022/04/15 01:24:39;;;;;;;9.25;3.20;;;;;;;;;;5004291;28;20503;-86
2022/04/15 01:27:05;;;;;;;4.72;2.65;;;;;;;;;;5001673;28;20030;-84
2022/04/15 01:29:37;;;;;;;5.60;2.90;;;;;;;;;;5001807;28;20559;-84
2022/04/15 01:32:05;;;;;;;5.93;2.70;;;;;;;;;;4995567;28;20052;-83
2022/04/15 01:34:31;;;;;;;7.32;3.08;;;;;;;;;;5004584;28;20121;-85
2022/04/15 01:36:57;;;;;;;8.55;2.80;;;;;;;;;;5004806;28;20034;-83
2022/04/15 01:39:23;;;;;;;5.78;2.75;;;;;;;;;;5013645;28;20402;-82
2022/04/15 01:41:49;;;;;;;7.32;3.17;;;;;;;;;;5005187;28;20026;-84
2022/04/15 01:44:15;;;;;;;6.63;3.22;;;;;;;;;;5002800;28;20117;-84
2022/04/15 01:46:44;;;;;;;7.47;3.75;;;;;;;;;;5001154;28;20034;-83
2022/04/15 01:49:11;;;;;;;4.32;2.70;;;;;;;;;;4997488;28;20038;-85
2022/04/15 01:51:37;;;;;;;7.18;3.20;;;;;;;;;;5006420;28;20025;-84
2022/04/15 01:54:04;;;;;;;6.15;2.88;;;;;;;;;;5009125;28;20029;-85
2022/04/15 01:56:30;;;;;;;5.35;3.13;;;;;;;;;;5004063;28;20125;-86
2022/04/15 01:58:56;;;;;;;6.28;2.20;;;;;;;;;;5003331;28;20030;-84
2022/04/15 02:01:21;;;;;;;5.35;2.47;;;;;;;;;;5004819;28;20539;-83
2022/04/15 02:03:47;;;;;;;7.60;2.58;;;;;;;;;;5005256;28;20273;-84
2022/04/15 02:06:13;;;;;;;6.57;2.35;;;;;;;;;;5000757;28;20087;-84
2022/04/15 02:08:40;;;;;;;7.95;2.80;;;;;;;;;;5008095;28;20234;-83
2022/04/15 02:11:06;;;;;;;5.55;1.77;;;;;;;;;;5004172;28;20423;-84
2022/04/15 02:13:32;;;;;;;4.88;1.88;;;;;;;;;;5005906;28;20060;-84
2022/04/15 02:15:58;;;;;;;8.80;2.50;;;;;;;;;;5006819;28;20022;-84
2022/04/15 02:18:26;;;;;;;5.13;2.25;;;;;;;;;;5005905;28;20030;-82
2022/04/15 02:20:52;;;;;;;3.45;1.52;;;;;;;;;;5010957;28;20616;-83
2022/04/15 02:23:18;;;;;;;4.78;2.20;;;;;;;;;;5006788;28;20393;-83
2022/04/15 02:25:44;;;;;;;5.22;2.10;;;;;;;;;;5008970;28;20152;-84
2022/04/15 02:28:10;;;;;;;3.00;1.58;;;;;;;;;;5006427;28;20605;-84
2022/04/15 02:30:36;;;;;;;6.22;2.47;;;;;;;;;;5004165;28;20473;-84
2022/04/15 02:33:02;;;;;;;5.03;2.10;;;;;;;;;;5005416;28;20030;-84
2022/04/15 02:35:27;;;;;;;11.35;1.98;;;;;;;;;;5011345;28;20044;-83
2022/04/15 02:37:53;;;;;;;3.47;2.08;;;;;;;;;;5006792;28;20037;-82
2022/04/15 02:40:19;;;;;;;4.60;2.25;;;;;;;;;;5008222;28;20040;-82
2022/04/15 02:42:45;;;;;;;4.13;2.03;;;;;;;;;;5007476;28;20029;-83
2022/04/15 02:45:11;;;;;;;7.28;1.75;;;;;;;;;;4999352;28;20030;-84
2022/04/15 02:47:37;;;;;;;8.18;3.05;;;;;;;;;;4999696;28;20152;-85
2022/04/15 02:50:04;;;;;;;5.28;2.00;;;;;;;;;;5005830;28;20121;-83
2022/04/15 02:52:30;;;;;;;5.03;1.83;;;;;;;;;;5003543;28;20032;-83
2022/04/15 02:54:56;;;;;;;4.35;2.25;;;;;;;;;;5011502;28;20033;-84
2022/04/15 02:57:22;;;;;;;4.00;2.33;;;;;;;;;;5001230;28;20466;-83
2022/04/15 02:59:48;;;;;;;4.90;2.72;;;;;;;;;;5001882;28;20041;-85
2022/04/15 03:02:15;;;;;;;3.65;1.95;;;;;;;;;;4998730;28;20113;-86
2022/04/15 03:04:41;;;;;;;4.53;2.47;;;;;;;;;;4998875;28;20031;-84
2022/04/15 03:07:07;;;;;;;4.57;1.52;;;;;;;;;;4999107;28;20103;-84
2022/04/15 03:09:33;;;;;;;5.72;2.42;;;;;;;;;;5004285;28;20944;-85
2022/04/15 03:11:59;;;;;;;4.13;1.50;;;;;;;;;;5009210;28;20026;-85
2022/04/15 03:14:25;;;;;;;4.50;2.30;;;;;;;;;;5004516;28;20030;-85
2022/04/15 03:16:51;;;;;;;4.47;1.48;;;;;;;;;;5005780;28;20040;-84
2022/04/15 03:19:17;;;;;;;2.97;1.65;;;;;;;;;;5006788;28;20261;-83
2022/04/15 03:21:43;;;;;;;4.00;1.48;;;;;;;;;;5004257;28;20064;-83
2022/04/15 03:24:09;;;;;;;4.65;1.90;;;;;;;;;;5006057;28;20065;-84
2022/04/15 03:26:35;;;;;;;4.70;1.83;;;;;;;;;;5007688;28;20028;-83
2022/04/15 03:29:01;;;;;;;8.40;2.47;;;;;;;;;;5002440;28;20512;-85
2022/04/15 03:31:27;;;;;;;4.15;2.55;;;;;;;;;;5002478;28;20037;-83
2022/04/15 03:33:52;;;;;;;4.85;2.00;;;;;;;;;;5001553;28;20076;-84
2022/04/15 03:36:19;;;;;;;5.43;1.45;;;;;;;;;;5002923;28;20464;-85
2022/04/15 03:38:44;;;;;;;4.00;1.70;;;;;;;;;;4997223;28;20029;-82
2022/04/15 03:41:10;;;;;;;2.03;1.25;;;;;;;;;;5006520;28;20030;-83
2022/04/15 03:43:37;;;;;;;3.15;1.52;;;;;;;;;;5006203;28;20499;-84
2022/04/15 03:46:03;;;;;;;4.35;1.88;;;;;;;;;;5001366;28;20396;-85
2022/04/15 03:48:29;;;;;;;6.10;2.10;;;;;;;;;;4996166;28;20544;-84
2022/04/15 03:50:55;;;;;;;5.20;2.00;;;;;;;;;;5005651;28;20052;-82
2022/04/15 03:53:21;;;;;;;5.78;2.22;;;;;;;;;;5002024;28;20030;-84
2022/04/15 03:55:47;;;;;;;4.53;2.65;;;;;;;;;;5000775;28;20029;-82
2022/04/15 03:58:15;;;;;;;4.15;2.03;;;;;;;;;;4998681;28;20797;-84
2022/04/15 04:00:42;;;;;;;3.85;1.42;;;;;;;;;;5002284;28;20124;-84
2022/04/15 04:03:07;;;;;;;8.10;2.42;;;;;;;;;;5012283;28;20053;-85
2022/04/15 04:05:34;;;;;;;4.88;1.83;;;;;;;;;;4997238;28;20057;-83
2022/04/15 04:07:59;;;;;;;7.88;2.22;;;;;;;;;;5007353;28;20030;-84
2022/04/15 04:10:26;;;;;;;5.18;2.28;;;;;;;;;;5006791;28;20099;-83
2022/04/15 04:12:51;;;;;;;6.20;2.53;;;;;;;;;;4998330;28;20026;-83
2022/04/15 04:15:18;;;;;;;8.25;2.80;;;;;;;;;;4997482;28;20037;-82
2022/04/15 04:17:44;;;;;;;5.30;2.22;;;;;;;;;;5001032;28;20054;-84
2022/04/15 04:20:12;;;;;;;6.10;2.70;;;;;;;;;;5002959;28;21146;-82
2022/04/15 04:22:38;;;;;;;5.93;1.75;;;;;;;;;;4999940;28;20034;-84
2022/04/15 04:25:05;;;;;;;4.10;1.85;;;;;;;;;;5012178;28;20034;-83
2022/04/15 04:27:31;;;;;;;4.55;2.33;;;;;;;;;;5004280;28;20029;-84
2022/04/15 04:29:57;;;;;;;5.10;1.92;;;;;;;;;;5009242;28;20083;-83
2022/04/15 04:32:23;;;;;;;8.20;3.03;;;;;;;;;;5005350;28;20522;-85
2022/04/15 04:34:49;;;;;;;5.75;1.85;;;;;;;;;;5007289;28;20038;-81
2022/04/15 04:37:15;;;;;;;3.88;1.65;;;;;;;;;;5009082;28;20021;-82
2022/04/15 04:39:41;;;;;;;5.15;2.22;;;;;;;;;;5004865;28;20160;-87
2022/04/15 04:42:07;;;;;;;5.05;1.98;;;;;;;;;;5010427;28;20085;-83
2022/04/15 04:44:34;;;;;;;5.63;2.75;;;;;;;;;;5005237;28;20446;-84
2022/04/15 04:47:00;;;;;;;5.28;2.10;;;;;;;;;;5003643;28;20382;-83
2022/04/15 04:49:26;;;;;;;5.00;2.13;;;;;;;;;;5011814;28;20426;-84
2022/04/15 04:51:53;;;;;;;4.15;1.75;;;;;;;;;;5006754;28;20046;-83
2022/04/15 04:54:19;;;;;;;4.60;2.45;;;;;;;;;;5006257;28;20034;-84
2022/04/15 04:56:45;;;;;;;5.00;2.10;;;;;;;;;;5007737;28;20045;-83
2022/04/15 04:59:11;;;;;;;3.58;1.92;;;;;;;;;;5012871;28;20493;-84
2022/04/15 05:01:37;;;;;;;5.22;2.88;;;;;;;;;;5005574;28;20473;-82
2022/04/15 05:04:03;;;;;;;4.90;2.55;;;;;;;;;;5007720;28;20037;-83
2022/04/15 05:06:29;;;;;;;8.40;3.38;;;;;;;;;;5007213;28;20497;-84
2022/04/15 05:08:55;;;;;;;12.98;3.72;;;;;;;;;;5011105;28;20076;-83
2022/04/15 05:11:21;;;;;;;23.67;10.02;;;;;;;;;;5012293;28;20053;-83
2022/04/15 05:13:50;;;;;;;7.45;4.13;;;;;;;;;;5006894;28;21358;-83
2022/04/15 05:16:16;;;;;;;5.78;3.08;;;;;;;;;;5009060;28;20141;-83
2022/04/15 05:18:42;;;;;;;7.68;2.97;;;;;;;;;;5003754;28;20259;-83
2022/04/15 05:21:08;;;;;;;6.85;3.20;;;;;;;;;;5010379;28;20038;-85
2022/04/15 05:23:34;;;;;;;5.75;2.90;;;;;;;;;;5007571;28;20029;-84
2022/04/15 05:25:59;;;;;;;5.43;2.65;;;;;;;;;;5013230;28;20033;-83
2022/04/15 05:28:25;;;;;;;9.35;3.35;;;;;;;;;;5012690;28;20046;-84
2022/04/15 05:30:52;;;;;;;9.32;3.53;;;;;;;;;;5012437;28;20026;-83
2022/04/15 05:33:18;;;;;;;12.57;4.20;;;;;;;;;;5011802;28;20022;-82
2022/04/15 05:35:44;;;;;;;10.25;3.50;;;;;;;;;;5010815;28;20030;-82
2022/04/15 05:38:09;;;;;;;8.82;3.35;;;;;;;;;;5011807;28;20032;-81
2022/04/15 05:40:35;;;;;;;9.32;3.70;;;;;;;;;;5003267;28;20457;-83
2022/04/15 05:43:01;;;;;;;7.85;3.47;;;;;;;;;;5012494;28;20479;-84
2022/04/15 05:45:27;;;;;;;17.00;4.03;;;;;;;;;;5008041;28;20060;-84
2022/04/15 05:47:57;;;;;;;8.55;3.97;;;;;;;;;;5011655;28;20041;-84
2022/04/15 05:50:23;;;;;;;6.80;3.55;;;;;;;;;;5008766;28;20054;-84
2022/04/15 05:52:49;;;;;;;11.68;3.10;;;;;;;;;;5013201;28;20052;-84
2022/04/15 05:55:15;;;;;;;7.30;3.55;;;;;;;;;;5010362;28;20030;-83
2022/04/15 05:57:41;;;;;;;14.25;3.22;;;;;;;;;;5009913;28;20033;-83
2022/04/15 06:00:07;;;;;;;17.80;4.38;;;;;;;;;;5007094;28;20033;-83
2022/04/15 06:02:33;;;;;;;10.48;3.45;;;;;;;;;;5008270;28;20231;-84
2022/04/15 06:04:59;;;;;;;8.30;3.35;;;;;;;;;;5011053;28;20057;-84
2022/04/15 06:07:25;;;;;;;10.45;3.22;;;;;;;;;;5004305;28;20026;-83
2022/04/15 06:09:51;;;;;;;8.15;3.85;;;;;;;;;;4998996;28;20056;-83
2022/04/15 06:12:21;;;;;;;7.78;4.20;;;;;;;;;;5008324;28;20025;-82
2022/04/15 06:14:47;;;;;;;8.27;3.50;;;;;;;;;;4997023;28;20061;-82
2022/04/15 06:17:13;;;;;;;8.50;2.92;;;;;;;;;;5001829;28;20037;-83
2022/04/15 06:19:39;;;;;;;7.55;3.40;;;;;;;;;;5004232;28;20037;-83
2022/04/15 06:22:05;;;;;;;8.43;3.55;;;;;;;;;;5005664;28;20029;-84
2022/04/15 06:24:31;;;;;;;7.72;3.38;;;;;;;;;;5002115;28;20034;-83
2022/04/15 06:26:57;;;;;;;8.63;4.07;;;;;;;;;;5004219;28;20030;-83
2022/04/15 06:29:23;;;;;;;8.65;4.13;;;;;;;;;;5000514;28;20049;-84
2022/04/15 06:31:50;;;;;;;9.50;3.80;;;;;;;;;;5004384;28;20026;-83
2022/04/15 06:34:16;;;;;;;12.07;4.03;;;;;;;;;;5004699;28;20048;-82
2022/04/15 06:36:41;;;;;;;6.05;3.17;;;;;;;;;;5003127;28;20646;-83
2022/04/15 06:39:07;;;;;;;9.80;3.55;;;;;;;;;;5007862;28;20081;-83
2022/04/15 06:41:34;;;;;;;7.03;2.85;;;;;;;;;;4998893;28;20398;-83
2022/04/15 06:44:00;;;;;;;8.75;3.25;;;;;;;;;;5004818;28;20112;-83
2022/04/15 06:46:26;;;;;;;7.28;3.60;;;;;;;;;;5001499;28;20565;-84
2022/04/15 06:48:52;;;;;;;6.57;2.80;;;;;;;;;;5000171;28;20061;-81
2022/04/15 06:51:18;;;;;;;6.75;3.33;;;;;;;;;;5000594;28;20030;-80
2022/04/15 06:53:44;;;;;;;6.30;3.35;;;;;;;;;;4999637;28;20040;-81
2022/04/15 06:56:10;;;;;;;7.50;3.63;;;;;;;;;;5009133;28;20789;-82
2022/04/15 06:58:37;;;;;;;8.05;2.80;;;;;;;;;;5010675;28;20041;-81
2022/04/15 07:01:03;;;;;;;8.75;2.60;;;;;;;;;;5009577;28;20026;-82
2022/04/15 07:03:29;;;;;;;12.38;3.13;;;12.50;99.90;;;;;;5009701;28;20062;-81
2022/04/15 07:05:55;;;;;;;7.78;3.05;;;;;;;;;;5008142;28;20033;-81
2022/04/15 07:08:21;;;;;;;5.72;2.90;;;;;;;;;;5011719;28;20048;-82
2022/04/15 07:10:47;;;;;;;5.72;2.92;;;;;;;;;;4995952;28;20316;-82
2022/04/15 07:13:13;;;;;;;5.25;2.50;;;;;;;;;;5011179;28;20096;-82
2022/04/15 07:15:39;;;;;;;7.57;2.58;;;;;;;;;;5011834;28;20021;-82
2022/04/15 07:18:05;;;;;;;6.43;3.22;;;;;;;;;;5008260;28;20037;-81
2022/04/15 07:20:31;;;;;;;8.73;3.03;;;;;;;;;;5008684;28;20273;-81
2022/04/15 07:22:57;;;;;;;7.13;2.45;;;;;;;;;;5009756;28;20042;-82
2022/04/15 07:25:24;;;;;;;5.07;2.70;;;;;;;;;;5008449;28;20278;-82
2022/04/15 07:27:51;;;;;;;6.05;2.75;;;;;;;;;;5008489;28;20022;-81
2022/04/15 07:30:20;;;;;;;4.35;2.67;;;;;;;;;;5004669;28;20179;-81
2022/04/15 07:32:46;;;;;;;5.80;2.75;;;;;;;;;;5009486;28;20021;-81
2022/04/15 07:35:12;;;;;;;4.38;2.60;;;;;;;;;;5009550;28;20115;-81
2022/04/15 07:37:38;;;;;;;4.40;2.00;;;;;;;;;;5009507;28;20072;-81
2022/04/15 07:40:05;;;;;;;6.40;2.80;;;;;;;;;;5008316;28;20411;-81
2022/04/15 07:42:31;;;;;;;8.40;3.50;;;;;;;;;;5009029;28;20026;-80
2022/04/15 07:44:57;;;;;;;6.88;3.25;;;;;;;;;;5004698;28;20022;-80
2022/04/15 07:47:23;;;;;;;4.63;2.20;;;;;;;;;;5010198;28;20033;-81
2022/04/15 07:49:50;;;;;;;6.85;3.10;;;;;;;;;;5005688;28;20034;-81
2022/04/15 07:52:17;;;;;;;4.47;1.85;;;;;;;;;;5005636;28;20096;-80
2022/04/15 07:54:43;;;;;;;6.05;2.33;;;;;;;;;;5007192;28;20034;-82
2022/04/15 07:57:09;;;;;;;5.35;2.15;;;;;;;;;;5003051;28;20033;-82
2022/04/15 07:59:35;;;;;;;11.90;4.75;;;;;;;;;;5011230;28;20041;-85
2022/04/15 08:02:05;;;;;;;7.30;3.63;;;;;;;;;;5014620;28;20033;-83
2022/04/15 08:04:34;;;;;;;7.70;3.40;;;;;;;;;;4993781;28;20041;-83
2022/04/15 08:07:00;;;;;;;4.72;2.45;;;;;;;;;;5000599;28;20036;-82
2022/04/15 08:09:26;;;;;;;8.07;3.80;;;;;;;;;;5005952;28;20459;-81
2022/04/15 08:11:54;;;;;;;6.68;3.25;;;;;;;;;;5009670;28;20026;-82
2022/04/15 08:14:20;;;;;;;16.38;8.73;;;;;;;;;;5000467;28;20030;-81
2022/04/15 08:16:46;;;;;;;8.73;3.92;;;;;;;;;;5006822;28;20018;-82
2022/04/15 08:19:12;;;;;;;7.07;3.38;;;;;;;;;;5004613;28;20037;-83
2022/04/15 08:21:38;;;;;;;13.65;5.82;;;;;;;;;;5016639;28;20045;-83
2022/04/15 08:24:04;;;;;;;5.40;3.15;;;;;;;;;;5010036;28;20037;-82
2022/04/15 08:26:30;;;;;;;8.38;3.10;;;;;;;;;;5015080;28;20026;-82
2022/04/15 08:28:56;;;;;;;3.85;1.88;;;;;;;;;;5008267;28;20128;-81
2022/04/15 08:31:22;;;;;;;6.25;2.67;;;;;;;;;;5015562;28;20030;-80
2022/04/15 08:33:48;;;;;;;6.32;2.17;;;;;;;;;;5007906;28;20048;-82
2022/04/15 08:36:15;;;;;;;4.70;2.40;;;;;;;;;;5009380;28;20030;-81
2022/04/15 08:38:41;;;;;;;5.85;2.72;;;;;;;;;;5003999;28;20711;-82
2022/04/15 08:41:08;;;;;;;6.05;2.72;;;;;;;;;;5010631;28;20041;-81
2022/04/15 08:43:34;;;;;;;3.22;1.20;;;;;;;;;;5006324;28;20034;-83
2022/04/15 08:46:03;;;;;;;3.28;1.50;;;;;;;;;;5006574;28;20400;-82
2022/04/15 08:48:29;;;;;;;3.47;1.50;;;;;;;;;;5005863;28;20132;-81
2022/04/15 08:50:58;;;;;;;4.07;1.45;;;;;;;;;;5012563;28;20029;-82
2022/04/15 08:53:24;;;;;;;3.08;1.38;;;;;;;;;;5013621;28;20374;-82
2022/04/15 08:55:50;;;;;;;8.98;3.17;;;;;;;;;;5014251;28;20025;-81
2022/04/15 08:58:16;;;;;;;6.03;1.83;;;;;;;;;;5010657;28;20036;-82
2022/04/15 09:00:42;;;;;;;2.85;2.13;;;;;;;;;;5007442;28;22529;-82
2022/04/15 09:03:07;;;;;;;2.63;1.63;;;26.50;64.80;;;;;;5011824;28;20101;-82
2022/04/15 09:05:33;;;;;;;4.57;1.55;;;;;;;;;;5012070;28;20025;-83
2022/04/15 09:08:02;;;;;;;5.13;1.90;;;;;;;;;;5002306;28;20045;-82
2022/04/15 09:10:28;;;;;;;5.22;1.80;;;;;;;;;;5006799;28;20026;-84
2022/04/15 09:12:54;;;;;;;4.47;2.05;;;;;;;;;;4995649;28;20299;-83
2022/04/15 09:15:20;;;;;;;7.05;3.03;;;;;;;;;;5010201;28;20355;-83
2022/04/15 09:17:49;;;;;;;4.45;2.95;;;;;;;;;;5008825;28;20401;-82
2022/04/15 09:20:15;;;;;;;7.63;5.28;;;;;;;;;;5006738;28;20079;-83
2022/04/15 09:22:41;;;;;;;6.85;3.78;;;;;;;;;;4998602;28;20032;-83
2022/04/15 09:25:08;;;;;;;5.55;2.92;;;;;;;;;;5006091;28;20044;-82
2022/04/15 09:27:35;;;;;;;7.47;3.13;;;;;;;;;;4999343;28;20465;-81
2022/04/15 09:30:02;;;;;;;8.02;3.20;;;;;;;;;;4991506;28;20030;-81
2022/04/15 09:32:29;;;;;;;6.82;3.80;;;;;;;;;;4996169;28;20025;-82
2022/04/15 09:34:58;;;;;;;5.93;3.47;;;;;;;;;;5004492;28;20064;-82
2022/04/15 09:37:25;;;;;;;6.35;3.40;;;;;;;;;;5002084;28;20236;-82
2022/04/15 09:40:12;;;;;;;7.40;3.80;;;;;;;;;;5001768;28;20105;-83
2022/04/15 09:42:43;;;;;;;5.78;2.95;;;;;;;;;;5001531;28;20466;-82
2022/04/15 09:45:16;;;;;;;8.43;3.53;;;;;;;;;;5004336;28;20150;-82
2022/04/15 09:47:42;;;;;;;9.32;3.42;;;;;;;;;;5002247;28;20125;-82
2022/04/15 09:50:21;;;;;;;7.80;3.33;;;;;;;;;;5004596;28;20070;-82
2022/04/15 09:52:47;;;;;;;5.63;3.20;;;;;;;;;;4999187;28;20033;-82
2022/04/15 09:55:14;;;;;;;4.82;2.80;;;;;;;;;;5008047;28;20034;-83
2022/04/15 09:57:41;;;;;;;3.38;2.25;;;;;;;;;;5002154;28;20488;-83
2022/04/15 10:00:11;;;;;;;6.75;3.70;;;;;;;;;;5003619;28;20459;-83
2022/04/15 10:02:38;;;;;;;5.88;2.40;;;;;;;;;;5000094;28;20034;-83
2022/04/15 10:05:04;;;;;;;6.68;3.20;;;;;;;;;;5003285;28;20042;-82
2022/04/15 10:07:31;;;;;;;6.75;3.75;;;;;;;;;;4991540;28;20414;-82
2022/04/15 10:09:57;;;;;;;9.38;3.80;;;;;;;;;;5006556;28;20033;-82
2022/04/15 10:12:24;;;;;;;5.40;3.10;;;;;;;;;;5003344;28;20029;-81
2022/04/15 10:14:51;;;;;;;5.95;2.75;;;;;;;;;;5003825;28;20052;-82
2022/04/15 10:17:20;;;;;;;9.65;3.58;;;;;;;;;;4996499;28;20033;-81
2022/04/15 10:19:46;;;;;;;9.82;3.40;;;;;;;;;;5003643;28;20044;-82
2022/04/15 10:22:13;;;;;;;6.50;2.65;;;;;;;;;;4995255;28;20084;-83
2022/04/15 10:24:40;;;;;;;15.27;4.97;;;;;;;;;;5009627;28;20034;-83
2022/04/15 10:27:07;;;;;;;12.18;4.60;;;;;;;;;;5005154;28;20034;-84
2022/04/15 10:29:33;;;;;;;5.75;2.30;;;;;;;;;;5009844;28;20034;-84
2022/04/15 10:32:11;;;;;;;5.63;2.58;;;;;;;;;;5010994;28;20034;-83
2022/04/15 10:34:47;;;;;;;7.68;2.78;;;;;;;;;;5016665;28;20389;-82
2022/04/15 10:37:13;;;;;;;9.77;3.15;;;;;;;;;;5003413;28;20034;-83
2022/04/15 10:39:50;;;;;;;6.45;2.70;;;;;;;;;;5001036;28;20109;-82
2022/04/15 10:42:19;;;;;;;10.20;3.42;;;;;;;;;;5006947;28;20117;-84
2022/04/15 10:44:45;;;;;;;10.00;2.42;;;;;;;;;;5008381;28;20022;-81
2022/04/15 10:47:11;;;;;;;5.28;2.88;;;;;;;;;;4999442;28;20076;-83
2022/04/15 10:49:39;;;;;;;6.32;2.70;;;;;;;;;;5008080;28;20034;-82
2022/04/15 10:52:16;;;;;;;6.43;3.28;;;;;;;;;;5009063;28;20089;-82
2022/04/15 10:54:48;;;;;;;6.07;2.65;;;;;;;;;;5005588;28;20040;-82
2022/04/15 10:57:19;;;;;;;5.33;2.57;;;;;;;;;;5007007;28;20158;-82
2022/04/15 11:02:45;;;;;;;5.93;2.80;;;;;;;;;;5005208;28;20052;-82
2022/04/15 11:05:12;;;;;;;5.70;3.10;;;20.50;73.30;;;;;;5006026;28;20026;-83
2022/04/15 11:07:59;;;;;;;7.85;3.05;;;20.60;72.80;;;;;;5006809;28;20025;-82
2022/04/15 11:10:42;;;;;;;9.63;2.72;;;20.00;70.10;;;;;;5010868;28;20046;-82
2022/04/15 11:13:09;;;;;;;4.13;2.00;;;;;;;;;;5008854;28;20038;-82
2022/04/15 11:15:55;;;;;;;5.45;2.47;;;;;;;;;;4996347;28;20119;-84
2022/04/15 11:18:21;;;;;;;4.32;1.85;;;;;;;;;;5002269;28;20325;-82
2022/04/15 11:20:47;;;;;;;4.45;1.50;;;;;;;;;;5012446;28;20547;-83
2022/04/15 11:23:13;;;;;;;6.10;1.63;;;;;;;;;;5002943;28;20053;-84
2022/04/15 11:25:45;;;;;;;4.68;1.25;;;;;;;;;;5009870;28;20045;-82
2022/04/15 11:28:11;;;;;;;6.07;1.50;;;;;;;;;;4997427;28;20097;-80
2022/04/15 11:30:37;;;;;;;1.33;0.70;;;;;;;;;;5004243;28;20162;-80
2022/04/15 11:33:04;;;;;;;2.05;0.80;;;;;;;;;;5003866;28;20038;-82
2022/04/15 11:35:32;;;;;;;1.25;0.57;;;;;;;;;;5002234;28;20034;-81
2022/04/15 11:38:02;;;;;;;2.33;0.80;;;;;;;;;;5009846;28;20116;-83
2022/04/15 11:40:29;;;;;;;1.23;0.52;;;;;;;;;;5006933;28;20630;-82
2022/04/15 11:43:01;;;;;;;1.50;0.68;;;;;;;;;;5010233;28;20076;-82
2022/04/15 11:45:33;;;;;;;4.38;1.02;;;;;;;;;;4999902;28;20033;-82
2022/04/15 11:48:18;;;;;;;3.65;0.73;;;;;;;;;;5007435;28;20317;-82
2022/04/15 11:50:45;;;;;;;2.45;1.10;;;;;;;;;;5007895;28;20462;-83
2022/04/15 11:53:11;;;;;;;2.75;1.05;;;;;;;;;;5006429;28;20052;-83
2022/04/15 11:55:53;;;;;;;5.15;2.72;;;;;;;;;;5001096;28;20076;-82
2022/04/15 11:58:20;;;;;;;5.82;2.00;;;;;;;;;;4996525;28;20397;-84
2022/04/15 12:00:57;;;;;;;2.33;0.93;;;;;;;;;;5001499;28;20033;-84
2022/04/15 12:03:23;;;;;;;1.70;0.75;;;;;;;;;;5012778;28;20040;-82
2022/04/15 12:05:50;;;;;;;3.42;1.30;;;;;;;;;;5008076;28;20117;-84
2022/04/15 12:08:17;;;;;;;2.72;0.98;;;;;;;;;;5015173;28;20034;-83
2022/04/15 12:10:44;;;;;;;4.97;1.00;;;;;;;;;;5008828;28;20683;-82
2022/04/15 12:13:10;;;;;;;0.68;0.45;;;;;;;;;;5008380;28;20036;-83
2022/04/15 12:15:37;;;;;;;1.23;0.60;;;;;;;;;;5006197;28;20037;-82
2022/04/15 12:18:03;;;;;;;2.13;1.10;;;;;;;;;;5012490;28;20038;-83
2022/04/15 12:20:30;;;;;;;3.72;0.82;;;;;;;;;;5007657;28;20385;-84
2022/04/15 12:22:57;;;;;;;2.30;0.88;;;;;;;;;;5010553;28;20107;-83
2022/04/15 12:25:23;;;;;;;5.88;0.82;;;;;;;;;;5010061;28;20041;-83
2022/04/15 12:27:49;;;;;;;5.85;1.00;;;;;;;;;;5009916;28;20026;-82
2022/04/15 12:30:34;;;;;;;0.88;0.50;;;;;;;;;;5001922;28;20453;-83
2022/04/15 12:33:07;;;;;;;1.00;0.52;;;;;;;;;;5011342;28;20026;-82
2022/04/15 12:35:34;;;;;;;5.50;0.60;;;;;;;;;;5005179;28;20030;-81
2022/04/15 12:38:01;;;;;;;1.00;0.30;;;;;;;;;;5012841;28;20030;-82
2022/04/15 12:40:31;;;;;;;0.60;0.45;;;;;;;;;;5012401;28;20032;-83
2022/04/15 12:43:17;;;;;;;0.70;0.30;;;;;;;;;;5008042;28;20036;-82
2022/04/15 12:45:46;;;;;;;1.15;0.45;;;;;;;;;;5006318;28;20038;-83
2022/04/15 12:48:12;;;;;;;0.77;0.43;;;;;;;;;;5008305;28;20041;-82
2022/04/15 12:50:39;;;;;;;0.52;0.30;;;;;;;;;;5012022;28;20029;-82
2022/04/15 12:53:17;;;;;;;0.28;0.10;;;20.20;66.40;;;;;;5016133;28;20112;-82
2022/04/15 12:55:43;;;;;;;3.08;0.50;;;;;;;;;;5009164;28;20055;-82
2022/04/15 12:58:20;;;;;;;0.82;0.40;;;;;;;;;;5009046;28;20033;-83
2022/04/15 13:00:48;;;;;;;0.20;0.10;;;;;;;;;;5012094;28;21063;-83
2022/04/15 13:03:17;;;;;;;0.68;0.30;;;;;;;;;;5013729;28;20461;-84
2022/04/15 13:05:43;;;;;;;0.70;0.20;;;;;;;;;;5006249;28;20034;-83
2022/04/15 13:08:09;;;;;;;2.30;1.08;;;;;;;;;;5015891;28;20068;-84
2022/04/15 13:10:34;;;;;;;5.75;0.40;;;19.80;74.30;;;;;;5013303;28;20034;-81
2022/04/15 13:13:00;;;;;;;0.30;0.20;;;;;;;;;;5009145;28;20038;-82
2022/04/15 13:15:26;;;;;;;0.73;0.30;;;;;;;;;;5010113;28;20040;-83
2022/04/15 13:17:53;;;;;;;1.02;0.35;;;;;;;;;;5012495;28;20114;-83
2022/04/15 13:20:19;;;;;;;1.52;0.20;;;;;;;;;;5013352;28;20529;-83
2022/04/15 13:22:45;;;;;;;0.43;0.20;;;;;;;;;;5016552;28;20041;-83
2022/04/15 13:25:11;;;;;;;0.35;0.15;;;;;;;;;;5018995;28;20350;-84
2022/04/15 13:27:37;;;;;;;1.10;0.50;;;;;;;;;;5009405;28;20484;-83
2022/04/15 13:30:04;;;;;;;3.45;1.20;;;;;;;;;;5015893;28;20097;-83
2022/04/15 13:32:30;;;;;;;1.23;0.68;;;;;;;;;;5009693;28;20014;-82
2022/04/15 13:34:56;;;;;;;1.15;0.50;;;;;;;;;;5016323;28;20458;-82
2022/04/15 13:37:21;;;;;;;0.52;0.43;;;;;;;;;;5013297;28;20063;-84
2022/04/15 13:39:48;;;;;;;0.85;0.20;;;;;;;;;;5014793;28;20030;-83
2022/04/15 13:42:14;;;;;;;2.60;0.20;;;;;;;;;;5014228;28;20049;-83
2022/04/15 13:44:40;;;;;;;0.03;0.03;;;;;;;;;;5011174;28;20018;-81
2022/04/15 13:47:06;;;;;;;0.10;0.00;;;;;;;;;;5015174;28;20049;-82
2022/04/15 13:49:35;;;;;;;0.20;0.15;;;;;;;;;;5013267;28;20041;-82
2022/04/15 13:56:34;;;;;;;2.10;0.10;;;;;;;;;;5010324;28;20018;-82
2022/04/15 13:57:32;;;;;;;1.73;0.10;;;;;;;;;;5007120;28;20125;-83
2022/04/15 14:00:03;;;;;;;0.30;0.13;;;;;;;;;;5003461;28;20124;-82
2022/04/15 14:02:29;;;;;;;0.10;0.10;;;;;;;;;;5007247;28;20276;-83
2022/04/15 14:04:54;;;;;;;0.95;0.10;;;;;;;;;;5011780;28;20097;-83
2022/04/15 14:07:20;;;;;;;0.50;0.10;;;;;;;;;;5009311;28;20022;-82
2022/04/15 14:09:46;;;;;;;0.00;0.00;;;;;;;;;;5015200;28;20034;-82
2022/04/15 14:12:13;;;;;;;0.20;0.17;;;;;;;;;;5007550;28;20402;-83
2022/04/15 14:14:38;;;;;;;0.20;0.10;;;;;;;;;;5009289;28;20054;-82
2022/04/15 14:17:05;;;;;;;0.32;0.15;;;;;;;;;;5013489;28;20061;-82
2022/04/15 14:19:31;;;;;;;0.65;0.25;;;;;;;;;;5007952;28;20120;-82
2022/04/15 14:21:57;;;;;;;2.83;0.35;;;;;;;;;;5014582;28;20061;-82
2022/04/15 14:24:23;;;;;;;1.10;0.45;;;;;;;;;;5012047;28;20516;-82
2022/04/15 14:26:49;;;;;;;0.50;0.20;;;;;;;;;;5006847;28;20037;-83
2022/04/15 14:29:15;;;;;;;0.40;0.10;;;;;;;;;;4997571;28;22269;-84
2022/04/15 14:31:41;;;;;;;1.02;0.30;;;;;;;;;;5009141;28;20025;-84
2022/04/15 14:34:07;;;;;;;0.40;0.17;;;;;;;;;;4985381;28;20112;-81
2022/04/15 14:36:33;;;;;;;0.57;0.28;;;;;;;;;;5007200;28;20500;-83
2022/04/15 14:38:58;;;;;;;5.57;0.20;;;;;;;;;;5008957;28;20033;-83
2022/04/15 14:41:25;;;;;;;0.82;0.25;;;;;;;;;;5013122;28;20036;-82
2022/04/15 14:43:51;;;;;;;1.55;0.30;;;;;;;;;;5004943;28;20096;-82